createdAt,value
2023-01-23T00:03:52.015Z,102618.38
2023-01-23T00:09:00.812Z,102622.78
2023-01-23T00:14:07.716Z,102622.47
2023-01-23T00:19:14.408Z,102633.84
2023-01-23T00:24:22.481Z,102632.91
2023-01-23T00:29:29.407Z,102628.56
2023-01-23T00:34:36.412Z,102643.34
2023-01-23T00:39:46.351Z,102641.41
2023-01-23T00:44:53.050Z,102636.06
2023-01-23T00:50:00.967Z,102637.19
2023-01-23T00:55:12.013Z,102644.66
2023-01-23T01:00:20.860Z,102640.53
2023-01-23T01:05:28.161Z,102641.31
2023-01-23T01:10:38.327Z,102648.19
2023-01-23T01:15:45.019Z,102646.44
2023-01-23T01:20:52.081Z,102655.75
2023-01-23T01:26:03.743Z,102653.41
2023-01-23T01:31:13.452Z,102662.13
2023-01-23T01:36:24.324Z,102667.06
2023-01-23T01:41:34.589Z,102662.91
2023-01-23T01:46:41.070Z,102662.81
2023-01-23T01:51:53.122Z,102661.13
2023-01-23T01:57:20.565Z,102674.06
2023-01-23T02:02:31.389Z,102673.97
2023-01-23T02:07:43.362Z,102678.09
2023-01-23T02:12:54.224Z,102679.88
2023-01-23T02:18:00.816Z,102673.72
2023-01-23T02:23:37.057Z,102687.50
2023-01-23T02:28:48.055Z,102699.31
2023-01-23T02:34:01.005Z,102676.28
2023-01-23T02:39:11.031Z,102682.06
2023-01-23T02:44:26.838Z,102692.50
2023-01-23T02:49:37.472Z,102677.81
2023-01-23T02:54:45.277Z,102679.56
2023-01-23T03:00:11.577Z,102692.59
2023-01-23T03:05:19.330Z,102696.53
2023-01-23T03:10:25.806Z,102702.19
2023-01-23T03:15:33.654Z,102698.00
2023-01-23T03:20:42.959Z,102694.69
2023-01-23T03:25:58.792Z,102703.13
2023-01-23T03:31:10.384Z,102702.41
2023-01-23T03:36:16.671Z,102706.50
2023-01-23T03:41:28.744Z,102701.00
2023-01-23T03:46:41.898Z,102709.81
2023-01-23T03:51:48.246Z,102722.53
2023-01-23T03:56:56.288Z,102732.22
2023-01-23T04:02:24.929Z,102729.59
2023-01-23T04:07:31.912Z,102743.16
2023-01-23T04:12:39.354Z,102745.44
2023-01-23T04:17:48.656Z,102747.34
2023-01-23T04:22:55.365Z,102750.06
2023-01-23T04:28:02.682Z,102741.69
2023-01-23T04:33:10.891Z,102743.22
2023-01-23T04:38:18.497Z,102742.50
2023-01-23T04:43:26.162Z,102748.53
2023-01-23T04:48:35.431Z,102744.25
2023-01-23T04:53:41.923Z,102760.66
2023-01-23T04:58:50.278Z,102758.66
2023-01-23T05:04:00.497Z,102756.09
2023-01-23T05:09:07.661Z,102759.56
2023-01-23T05:14:28.424Z,102758.38
2023-01-23T05:19:36.281Z,102770.19
2023-01-23T05:24:48.833Z,102776.28
2023-01-23T05:29:56.105Z,102764.28
2023-01-23T05:35:08.204Z,102769.44
2023-01-23T05:40:18.830Z,102770.97
2023-01-23T05:45:57.046Z,102795.06
2023-01-23T05:51:14.371Z,102800.06
2023-01-23T05:56:21.477Z,102801.91
2023-01-23T06:01:55.202Z,102809.63
2023-01-23T06:07:23.305Z,102810.50
2023-01-23T06:12:35.467Z,102820.78
2023-01-23T06:17:42.436Z,102831.88
2023-01-23T06:22:50.959Z,102851.63
2023-01-23T06:27:58.083Z,102855.16
2023-01-23T06:33:07.845Z,102868.03
2023-01-23T06:38:21.281Z,102874.22
2023-01-23T06:43:30.529Z,102875.88
2023-01-23T06:48:36.997Z,102876.84
2023-01-23T06:53:45.220Z,102885.53
2023-01-23T06:58:52.238Z,102891.28
2023-01-23T07:04:11.578Z,102896.44
2023-01-23T07:09:21.466Z,102904.63
2023-01-23T07:14:41.207Z,102908.25
2023-01-23T07:19:53.133Z,102908.50
2023-01-23T07:25:01.255Z,102905.13
2023-01-23T07:30:10.322Z,102911.84
2023-01-23T07:35:17.005Z,102905.06
2023-01-23T07:40:25.369Z,102909.59
2023-01-23T07:45:31.773Z,102913.31
2023-01-23T07:50:38.414Z,102916.66
2023-01-23T07:55:46.165Z,102922.84
2023-01-23T08:00:52.696Z,102926.25
2023-01-23T08:06:00.135Z,102921.31
2023-01-23T08:11:10.583Z,102930.41
2023-01-23T08:16:17.358Z,102931.31
2023-01-23T08:21:24.435Z,102944.78
2023-01-23T08:26:33.737Z,102943.25
2023-01-23T08:31:41.159Z,102962.25
2023-01-23T08:36:47.679Z,102956.28
2023-01-23T08:41:55.519Z,102962.47
2023-01-23T08:47:03.770Z,102965.63
2023-01-23T08:52:10.231Z,102976.69
2023-01-23T08:57:18.298Z,102971.72
2023-01-23T09:02:25.024Z,102976.47
2023-01-23T09:07:31.818Z,102970.69
2023-01-23T09:12:39.685Z,102976.06
2023-01-23T09:17:46.176Z,102969.88
2023-01-23T09:22:53.111Z,102967.22
2023-01-23T09:28:00.971Z,102963.91
2023-01-23T09:33:07.400Z,102963.19
2023-01-23T09:38:13.609Z,102949.44
2023-01-23T09:43:30.766Z,102960.63
2023-01-23T09:48:46.512Z,102960.72
2023-01-23T09:53:54.286Z,102950.16
2023-01-23T09:59:16.251Z,102956.84
2023-01-23T10:04:23.905Z,102955.41
2023-01-23T10:10:00.621Z,102952.75
2023-01-23T10:15:29.628Z,102958.03
2023-01-23T10:21:04.431Z,102958.16
2023-01-23T10:26:20.741Z,102963.13
2023-01-23T10:31:39.226Z,102961.66
2023-01-23T10:37:04.233Z,102965.59
2023-01-23T10:42:14.630Z,102966.56
2023-01-23T10:47:38.808Z,102963.03
2023-01-23T10:52:48.388Z,102964.47
2023-01-23T10:57:57.797Z,102960.63
2023-01-23T11:03:34.840Z,102949.19
2023-01-23T11:08:51.880Z,102955.47
2023-01-23T11:14:23.800Z,102952.25
2023-01-23T11:19:34.689Z,102953.78
2023-01-23T11:24:41.874Z,102946.00
2023-01-23T11:30:24.451Z,102946.38
2023-01-23T11:36:01.966Z,102931.97
2023-01-23T11:41:12.737Z,102936.75
2023-01-23T11:46:39.626Z,102929.91
2023-01-23T11:51:58.695Z,102937.91
2023-01-23T11:57:11.285Z,102933.34
2023-01-23T12:03:01.373Z,102939.59
2023-01-23T12:08:26.332Z,102940.47
2023-01-23T12:13:58.559Z,102941.47
2023-01-23T12:19:20.641Z,102933.97
2023-01-23T12:24:52.147Z,102938.44
2023-01-23T12:30:22.508Z,102931.47
2023-01-23T12:35:38.621Z,102938.59
2023-01-23T12:40:52.376Z,102929.13
2023-01-23T12:46:06.184Z,102930.97
2023-01-23T12:51:20.356Z,102934.44
2023-01-23T12:56:33.066Z,102934.22
2023-01-23T13:02:01.014Z,102947.19
2023-01-23T13:07:28.275Z,102951.47
2023-01-23T13:12:36.996Z,102950.09
2023-01-23T13:17:49.353Z,102957.50
2023-01-23T13:22:55.576Z,102967.94
2023-01-23T13:28:44.696Z,102964.34
2023-01-23T13:33:55.329Z,102978.84
2023-01-23T13:39:28.663Z,102974.72
2023-01-23T13:44:41.812Z,102976.31
2023-01-23T14:23:58.728Z,102980.59
2023-01-23T14:29:20.410Z,102990.72
2023-01-23T14:34:29.323Z,102999.44
2023-01-23T14:39:37.258Z,102995.16
2023-01-23T14:44:47.606Z,102996.91
2023-01-23T14:49:57.343Z,103002.16
2023-01-23T14:55:08.135Z,102997.72
2023-01-23T15:00:19.586Z,103001.13
2023-01-23T15:05:29.517Z,102999.34
2023-01-23T15:10:48.192Z,102990.66
2023-01-23T15:15:58.849Z,103001.69
2023-01-23T15:21:08.671Z,102999.91
2023-01-23T15:26:28.012Z,103004.41
2023-01-23T15:31:37.124Z,103011.09
2023-01-23T15:36:52.642Z,103002.56
2023-01-23T15:42:02.631Z,103000.88
2023-01-23T15:47:09.267Z,103003.38
2023-01-23T15:52:24.499Z,103009.94
2023-01-23T15:57:31.496Z,103014.31
2023-01-23T16:02:47.231Z,103007.53
2023-01-23T16:08:04.766Z,103006.59
2023-01-23T16:13:15.746Z,103018.66
2023-01-23T16:18:24.169Z,103015.19
2023-01-23T16:23:46.097Z,103015.69
2023-01-23T16:28:55.515Z,103022.53
2023-01-23T16:34:06.204Z,103026.22
2023-01-23T16:39:20.561Z,103026.22
2023-01-23T16:44:29.037Z,103027.09
2023-01-23T16:49:50.987Z,103036.44
2023-01-23T16:55:01.403Z,103036.81
2023-01-23T17:00:33.514Z,103039.50
2023-01-23T17:05:41.464Z,103037.09
2023-01-23T17:10:53.464Z,103043.00
2023-01-23T17:16:00.996Z,103043.75
2023-01-23T17:21:08.853Z,103038.50
2023-01-23T17:26:21.245Z,103045.41
2023-01-23T17:31:33.531Z,103036.81
2023-01-23T17:36:42.503Z,103037.78
2023-01-23T17:41:54.347Z,103044.06
2023-01-23T17:47:04.088Z,103050.91
2023-01-23T17:52:14.859Z,103047.50
2023-01-23T17:57:25.450Z,103047.50
2023-01-23T18:02:33.804Z,103048.31
2023-01-23T18:07:53.836Z,103043.00
2023-01-23T18:13:21.261Z,103044.94
2023-01-23T18:18:34.273Z,103045.09
2023-01-23T18:23:45.634Z,103046.72
2023-01-23T18:29:26.952Z,103046.88
2023-01-23T18:34:46.135Z,103049.47
2023-01-23T18:40:17.377Z,103053.56
2023-01-23T18:45:32.752Z,103054.69
2023-01-23T18:50:54.047Z,103048.56
2023-01-23T18:56:15.532Z,103056.25
2023-01-23T19:01:34.337Z,103058.13
2023-01-23T19:06:45.486Z,103054.75
2023-01-23T19:12:14.056Z,103061.69
2023-01-23T19:17:50.507Z,103060.69
2023-01-23T19:23:27.937Z,103061.59
2023-01-23T19:28:38.973Z,103065.84
2023-01-23T19:33:50.004Z,103065.84
2023-01-23T19:39:02.904Z,103072.69
2023-01-23T19:44:16.251Z,103079.69
2023-01-23T19:49:29.006Z,103074.44
2023-01-23T19:54:40.255Z,103077.75
2023-01-23T19:59:50.243Z,103077.91
2023-01-23T20:05:03.159Z,103070.19
2023-01-23T20:10:22.682Z,103074.22
2023-01-23T20:15:31.070Z,103058.72
2023-01-23T20:20:42.086Z,103068.19
2023-01-23T20:26:01.113Z,103069.00
2023-01-23T20:31:11.319Z,103073.09
2023-01-23T20:36:23.023Z,103067.84
2023-01-23T20:41:35.220Z,103073.22
2023-01-23T20:46:44.727Z,103074.84
2023-01-23T20:51:55.039Z,103074.94
2023-01-23T20:57:07.809Z,103076.72
2023-01-23T21:02:25.928Z,103075.09
2023-01-23T21:07:37.354Z,103084.66
2023-01-23T21:12:46.287Z,103080.25
2023-01-23T21:17:53.806Z,103079.19
2023-01-23T21:23:03.157Z,103079.28
2023-01-23T21:28:10.732Z,103088.19
2023-01-23T21:33:19.401Z,103084.97
2023-01-23T21:38:30.063Z,103081.44
2023-01-23T21:43:39.159Z,103079.66
2023-01-23T21:48:45.900Z,103075.56
2023-01-23T21:53:54.354Z,103078.84
2023-01-23T21:59:00.740Z,103081.53
2023-01-23T22:04:11.071Z,103088.53
2023-01-23T22:09:20.964Z,103078.38
2023-01-23T22:14:27.576Z,103080.88
2023-01-23T22:19:33.914Z,103089.66
2023-01-23T22:24:41.738Z,103094.72
2023-01-23T22:29:48.247Z,103089.59
2023-01-23T22:34:54.858Z,103096.38
2023-01-23T22:40:02.665Z,103098.19
2023-01-23T22:45:11.066Z,103105.09
2023-01-23T22:50:18.460Z,103101.72
2023-01-23T22:55:26.262Z,103094.81
2023-01-23T23:00:32.986Z,103101.63
2023-01-23T23:05:39.709Z,103098.19
2023-01-23T23:10:49.814Z,103100.75
2023-01-23T23:15:56.686Z,103105.09
2023-01-23T23:21:03.968Z,103105.81
2023-01-23T23:26:14.437Z,103098.34
2023-01-23T23:31:21.006Z,103089.72
2023-01-23T23:36:27.701Z,103093.09
2023-01-23T23:41:35.671Z,103103.63
2023-01-23T23:46:42.038Z,103094.81
2023-01-23T23:51:48.388Z,103098.25
2023-01-23T23:56:56.102Z,103096.66
